sensor_id;sensor_type;location;lat;lon;timestamp;pressure;altitude;pressure_sealevel;temperature;humidity
63395;BME280;49531;-34.520;150.798;2022-12-18T00:02:16;101424.50;;;18.16;58.18
63395;BME280;49531;-34.520;150.798;2022-12-18T00:04:43;101431.56;;;18.17;58.13
63395;BME280;49531;-34.520;150.798;2022-12-18T00:07:11;101434.03;;;18.18;58.57
63395;BME280;49531;-34.520;150.798;2022-12-18T00:09:38;101425.91;;;18.18;58.23
63395;BME280;49531;-34.520;150.798;2022-12-18T00:12:05;101426.75;;;18.19;58.30
63395;BME280;49531;-34.520;150.798;2022-12-18T00:14:32;101429.22;;;18.20;58.36
63395;BME280;49531;-34.520;150.798;2022-12-18T00:17:00;101430.06;;;18.21;58.34
63395;BME280;49531;-34.520;150.798;2022-12-18T00:19:27;101421.72;;;18.22;58.49
63395;BME280;49531;-34.520;150.798;2022-12-18T00:21:54;101410.06;;;18.22;58.51
63395;BME280;49531;-34.520;150.798;2022-12-18T00:24:22;101418.78;;;18.24;58.85
63395;BME280;49531;-34.520;150.798;2022-12-18T00:26:49;101417.72;;;18.25;59.02
63395;BME280;49531;-34.520;150.798;2022-12-18T00:29:16;101418.56;;;18.25;59.85
63395;BME280;49531;-34.520;150.798;2022-12-18T00:31:43;101415.84;;;18.25;60.73
63395;BME280;49531;-34.520;150.798;2022-12-18T00:34:11;101429.97;;;18.27;60.33
63395;BME280;49531;-34.520;150.798;2022-12-18T00:36:39;101428.53;;;18.25;60.69
63395;BME280;49531;-34.520;150.798;2022-12-18T00:39:07;101435.00;;;18.24;60.48
63395;BME280;49531;-34.520;150.798;2022-12-18T00:41:34;101434.09;;;18.12;62.27
63395;BME280;49531;-34.520;150.798;2022-12-18T00:44:21;101447.47;;;18.07;62.85
63395;BME280;49531;-34.520;150.798;2022-12-18T00:46:49;101448.84;;;17.97;64.36
63395;BME280;49531;-34.520;150.798;2022-12-18T00:49:17;101446.16;;;17.97;64.87
63395;BME280;49531;-34.520;150.798;2022-12-18T00:51:45;101438.56;;;17.88;64.44
63395;BME280;49531;-34.520;150.798;2022-12-18T00:54:12;101433.84;;;17.83;64.37
63395;BME280;49531;-34.520;150.798;2022-12-18T00:56:39;101437.97;;;17.86;65.15
63395;BME280;49531;-34.520;150.798;2022-12-18T00:59:07;101433.38;;;17.86;62.85
63395;BME280;49531;-34.520;150.798;2022-12-18T01:01:34;101423.09;;;17.95;62.88
63395;BME280;49531;-34.520;150.798;2022-12-18T01:04:02;101420.06;;;18.03;62.69
63395;BME280;49531;-34.520;150.798;2022-12-18T01:06:29;101416.09;;;18.06;62.63
63395;BME280;49531;-34.520;150.798;2022-12-18T01:08:57;101419.41;;;18.08;61.57
63395;BME280;49531;-34.520;150.798;2022-12-18T01:11:24;101410.22;;;18.09;59.76
63395;BME280;49531;-34.520;150.798;2022-12-18T01:13:53;101406.94;;;18.07;59.30
63395;BME280;49531;-34.520;150.798;2022-12-18T01:16:21;101403.16;;;18.08;58.72
63395;BME280;49531;-34.520;150.798;2022-12-18T01:18:52;101403.78;;;18.10;58.46
63395;BME280;49531;-34.520;150.798;2022-12-18T01:21:22;101398.13;;;18.11;58.24
63395;BME280;49531;-34.520;150.798;2022-12-18T01:23:54;101401.44;;;18.13;58.51
63395;BME280;49531;-34.520;150.798;2022-12-18T01:26:21;101384.75;;;18.16;58.47
63395;BME280;49531;-34.520;150.798;2022-12-18T01:28:48;101391.38;;;18.20;58.04
63395;BME280;49531;-34.520;150.798;2022-12-18T01:31:19;101382.19;;;18.21;57.50
63395;BME280;49531;-34.520;150.798;2022-12-18T01:33:47;101381.75;;;18.24;57.43
63395;BME280;49531;-34.520;150.798;2022-12-18T01:36:19;101383.16;;;18.27;57.41
63395;BME280;49531;-34.520;150.798;2022-12-18T01:38:47;101368.59;;;18.28;57.17
63395;BME280;49531;-34.520;150.798;2022-12-18T01:41:17;101373.56;;;18.31;56.77
63395;BME280;49531;-34.520;150.798;2022-12-18T01:43:55;101367.69;;;18.34;56.56
63395;BME280;49531;-34.520;150.798;2022-12-18T01:46:25;101357.47;;;18.36;56.00
63395;BME280;49531;-34.520;150.798;2022-12-18T01:48:56;101348.63;;;18.41;55.70
63395;BME280;49531;-34.520;150.798;2022-12-18T01:51:27;101353.56;;;18.44;55.62
63395;BME280;49531;-34.520;150.798;2022-12-18T01:53:54;101344.19;;;18.46;54.93
63395;BME280;49531;-34.520;150.798;2022-12-18T01:56:22;101345.81;;;18.47;54.20
63395;BME280;49531;-34.520;150.798;2022-12-18T01:59:05;101339.97;;;18.50;53.41
63395;BME280;49531;-34.520;150.798;2022-12-18T02:01:33;101337.25;;;18.50;53.39
63395;BME280;49531;-34.520;150.798;2022-12-18T02:04:20;101335.97;;;18.53;53.43
63395;BME280;49531;-34.520;150.798;2022-12-18T02:06:53;101338.44;;;18.54;53.52
63395;BME280;49531;-34.520;150.798;2022-12-18T02:09:31;101333.63;;;18.56;53.40
63395;BME280;49531;-34.520;150.798;2022-12-18T02:12:13;101329.63;;;18.59;53.00
63395;BME280;49531;-34.520;150.798;2022-12-18T02:14:55;101324.03;;;18.60;53.09
63395;BME280;49531;-34.520;150.798;2022-12-18T02:17:35;101328.16;;;18.63;53.19
63395;BME280;49531;-34.520;150.798;2022-12-18T02:20:18;101329.31;;;18.67;52.90
63395;BME280;49531;-34.520;150.798;2022-12-18T02:23:04;101325.34;;;18.70;52.78
63395;BME280;49531;-34.520;150.798;2022-12-18T02:25:54;101324.63;;;18.74;52.95
63395;BME280;49531;-34.520;150.798;2022-12-18T02:28:32;101319.00;;;18.76;53.14
63395;BME280;49531;-34.520;150.798;2022-12-18T02:31:02;101331.22;;;18.78;53.11
63395;BME280;49531;-34.520;150.798;2022-12-18T02:33:33;101320.16;;;18.80;53.31
63395;BME280;49531;-34.520;150.798;2022-12-18T02:36:03;101323.44;;;18.82;53.34
63395;BME280;49531;-34.520;150.798;2022-12-18T02:38:31;101325.69;;;18.85;53.42
63395;BME280;49531;-34.520;150.798;2022-12-18T02:41:00;101327.34;;;18.86;53.06
63395;BME280;49531;-34.520;150.798;2022-12-18T02:43:30;101325.69;;;18.85;52.91
63395;BME280;49531;-34.520;150.798;2022-12-18T02:45:58;101329.22;;;18.85;53.40
63395;BME280;49531;-34.520;150.798;2022-12-18T02:48:33;101323.56;;;18.87;53.98
63395;BME280;49531;-34.520;150.798;2022-12-18T02:51:23;101328.97;;;18.87;54.01
63395;BME280;49531;-34.520;150.798;2022-12-18T02:54:03;101324.38;;;18.87;53.87
63395;BME280;49531;-34.520;150.798;2022-12-18T02:56:39;101331.69;;;18.87;53.65
63395;BME280;49531;-34.520;150.798;2022-12-18T02:59:15;101319.81;;;18.88;53.68
63395;BME280;49531;-34.520;150.798;2022-12-18T03:01:54;101326.03;;;18.88;53.54
63395;BME280;49531;-34.520;150.798;2022-12-18T03:04:34;101323.09;;;18.90;53.27
63395;BME280;49531;-34.520;150.798;2022-12-18T03:07:09;101319.69;;;18.94;53.05
63395;BME280;49531;-34.520;150.798;2022-12-18T03:09:42;101318.03;;;18.93;52.91
63395;BME280;49531;-34.520;150.798;2022-12-18T03:12:26;101306.97;;;18.95;52.72
63395;BME280;49531;-34.520;150.798;2022-12-18T03:15:03;101318.41;;;18.97;52.68
63395;BME280;49531;-34.520;150.798;2022-12-18T03:17:33;101309.44;;;18.96;52.28
63395;BME280;49531;-34.520;150.798;2022-12-18T03:20:07;101310.88;;;18.99;52.24
63395;BME280;49531;-34.520;150.798;2022-12-18T03:22:38;101304.41;;;19.00;52.12
63395;BME280;49531;-34.520;150.798;2022-12-18T03:25:11;101304.41;;;19.00;52.29
63395;BME280;49531;-34.520;150.798;2022-12-18T03:27:45;101308.75;;;19.01;52.73
63395;BME280;49531;-34.520;150.798;2022-12-18T03:30:12;101308.75;;;19.01;52.98
63395;BME280;49531;-34.520;150.798;2022-12-18T03:33:02;101306.03;;;19.01;52.69
63395;BME280;49531;-34.520;150.798;2022-12-18T03:35:35;101305.22;;;19.01;52.83
63395;BME280;49531;-34.520;150.798;2022-12-18T03:38:03;101312.75;;;18.98;52.90
63395;BME280;49531;-34.520;150.798;2022-12-18T03:40:52;101311.34;;;18.96;53.15
63395;BME280;49531;-34.520;150.798;2022-12-18T03:43:36;101324.03;;;18.95;53.30
63395;BME280;49531;-34.520;150.798;2022-12-18T03:46:25;101318.28;;;18.92;54.06
63395;BME280;49531;-34.520;150.798;2022-12-18T03:49:05;101316.63;;;18.91;54.68
63395;BME280;49531;-34.520;150.798;2022-12-18T03:51:50;101317.09;;;18.88;54.33
63395;BME280;49531;-34.520;150.798;2022-12-18T03:54:21;101316.50;;;18.86;53.34
63395;BME280;49531;-34.520;150.798;2022-12-18T03:56:56;101290.50;;;18.85;51.83
63395;BME280;49531;-34.520;150.798;2022-12-18T03:59:25;101312.16;;;18.85;51.08
63395;BME280;49531;-34.520;150.798;2022-12-18T04:01:55;101291.78;;;18.82;50.81
63395;BME280;49531;-34.520;150.798;2022-12-18T04:04:25;101306.75;;;18.85;51.00
63395;BME280;49531;-34.520;150.798;2022-12-18T04:06:53;101306.75;;;18.85;50.86
63395;BME280;49531;-34.520;150.798;2022-12-18T04:09:21;101301.56;;;18.83;51.07
63395;BME280;49531;-34.520;150.798;2022-12-18T04:11:48;101293.19;;;18.85;51.21
63395;BME280;49531;-34.520;150.798;2022-12-18T04:14:15;101310.50;;;18.84;51.12
63395;BME280;49531;-34.520;150.798;2022-12-18T04:16:42;101303.44;;;18.83;51.10
63395;BME280;49531;-34.520;150.798;2022-12-18T04:19:10;101308.63;;;18.84;51.26
63395;BME280;49531;-34.520;150.798;2022-12-18T04:21:37;101298.63;;;18.85;51.32
63395;BME280;49531;-34.520;150.798;2022-12-18T04:24:04;101295.91;;;18.85;50.96
63395;BME280;49531;-34.520;150.798;2022-12-18T04:26:32;101291.31;;;18.85;51.13
63395;BME280;49531;-34.520;150.798;2022-12-18T04:28:59;101290.50;;;18.85;51.31
63395;BME280;49531;-34.520;150.798;2022-12-18T04:31:26;101287.56;;;18.86;51.48
63395;BME280;49531;-34.520;150.798;2022-12-18T04:33:53;101282.50;;;18.90;51.62
63395;BME280;49531;-34.520;150.798;2022-12-18T04:36:20;101282.03;;;18.93;51.20
63395;BME280;49531;-34.520;150.798;2022-12-18T04:38:48;101276.97;;;18.96;51.48
63395;BME280;49531;-34.520;150.798;2022-12-18T04:41:15;101273.19;;;18.97;51.47
63395;BME280;49531;-34.520;150.798;2022-12-18T04:43:42;101272.16;;;18.98;51.16
63395;BME280;49531;-34.520;150.798;2022-12-18T04:46:09;101274.84;;;18.98;50.08
63395;BME280;49531;-34.520;150.798;2022-12-18T04:48:37;101272.97;;;18.99;49.99
63395;BME280;49531;-34.520;150.798;2022-12-18T04:51:05;101271.09;;;18.99;50.00
63395;BME280;49531;-34.520;150.798;2022-12-18T04:53:34;101276.25;;;19.01;50.15
63395;BME280;49531;-34.520;150.798;2022-12-18T04:56:07;101262.72;;;19.01;50.33
63395;BME280;49531;-34.520;150.798;2022-12-18T04:58:36;101275.19;;;19.02;50.49
63395;BME280;49531;-34.520;150.798;2022-12-18T05:01:03;101265.19;;;19.03;50.62
63395;BME280;49531;-34.520;150.798;2022-12-18T05:03:31;101257.91;;;19.03;50.82
63395;BME280;49531;-34.520;150.798;2022-12-18T05:05:58;101255.19;;;19.03;51.84
63395;BME280;49531;-34.520;150.798;2022-12-18T05:08:25;101254.97;;;19.05;52.15
63395;BME280;49531;-34.520;150.798;2022-12-18T05:11:00;101251.19;;;19.06;51.62
63395;BME280;49531;-34.520;150.798;2022-12-18T05:13:29;101249.31;;;19.06;51.22
63395;BME280;49531;-34.520;150.798;2022-12-18T05:15:56;101252.59;;;19.08;51.37
63395;BME280;49531;-34.520;150.798;2022-12-18T05:18:24;101233.88;;;19.07;51.77
63395;BME280;49531;-34.520;150.798;2022-12-18T05:20:52;101239.66;;;19.10;51.88
63395;BME280;49531;-34.520;150.798;2022-12-18T05:23:21;101232.59;;;19.09;52.07
63395;BME280;49531;-34.520;150.798;2022-12-18T05:25:54;101232.94;;;19.13;52.22
63395;BME280;49531;-34.520;150.798;2022-12-18T05:28:22;101242.72;;;19.14;52.21
63395;BME280;49531;-34.520;150.798;2022-12-18T05:30:52;101239.75;;;19.15;52.20
63395;BME280;49531;-34.520;150.798;2022-12-18T05:33:21;101231.63;;;19.15;52.14
63395;BME280;49531;-34.520;150.798;2022-12-18T05:35:51;101247.66;;;19.17;52.20
63395;BME280;49531;-34.520;150.798;2022-12-18T05:38:19;101229.75;;;19.16;51.87
63395;BME280;49531;-34.520;150.798;2022-12-18T05:40:48;101233.03;;;19.18;52.15
63395;BME280;49531;-34.520;150.798;2022-12-18T05:43:16;101233.88;;;19.18;52.08
63395;BME280;49531;-34.520;150.798;2022-12-18T05:45:44;101234.69;;;19.19;52.28
63395;BME280;49531;-34.520;150.798;2022-12-18T05:48:11;101231.72;;;19.20;52.45
63395;BME280;49531;-34.520;150.798;2022-12-18T05:50:40;101236.06;;;19.21;52.55
63395;BME280;49531;-34.520;150.798;2022-12-18T05:53:09;101236.91;;;19.22;52.61
63395;BME280;49531;-34.520;150.798;2022-12-18T05:55:39;101233.94;;;19.23;52.64
63395;BME280;49531;-34.520;150.798;2022-12-18T05:58:08;101238.31;;;19.24;52.52
63395;BME280;49531;-34.520;150.798;2022-12-18T06:00:38;101229.13;;;19.25;52.57
63395;BME280;49531;-34.520;150.798;2022-12-18T06:03:07;101245.38;;;19.25;52.57
63395;BME280;49531;-34.520;150.798;2022-12-18T06:05:37;101234.28;;;19.27;52.61
63395;BME280;49531;-34.520;150.798;2022-12-18T06:08:04;101235.94;;;19.28;52.65
63395;BME280;49531;-34.520;150.798;2022-12-18T06:10:32;101234.88;;;19.29;52.57
63395;BME280;49531;-34.520;150.798;2022-12-18T06:13:00;101229.22;;;19.30;52.55
63395;BME280;49531;-34.520;150.798;2022-12-18T06:15:27;101236.28;;;19.31;52.81
63395;BME280;49531;-34.520;150.798;2022-12-18T06:17:54;101235.22;;;19.32;52.66
63395;BME280;49531;-34.520;150.798;2022-12-18T06:20:21;101240.66;;;19.32;52.81
63395;BME280;49531;-34.520;150.798;2022-12-18T06:22:49;101236.88;;;19.33;52.77
63395;BME280;49531;-34.520;150.798;2022-12-18T06:25:16;101241.00;;;19.36;52.62
63395;BME280;49531;-34.520;150.798;2022-12-18T06:27:43;101238.03;;;19.38;52.56
63395;BME280;49531;-34.520;150.798;2022-12-18T06:30:11;101244.53;;;19.37;52.73
63395;BME280;49531;-34.520;150.798;2022-12-18T06:32:39;101245.34;;;19.37;52.73
63395;BME280;49531;-34.520;150.798;2022-12-18T06:35:06;101238.03;;;19.38;52.40
63395;BME280;49531;-34.520;150.798;2022-12-18T06:37:33;101247.00;;;19.38;52.31
63395;BME280;49531;-34.520;150.798;2022-12-18T06:40:00;101253.22;;;19.39;52.22
63395;BME280;49531;-34.520;150.798;2022-12-18T06:42:29;101248.63;;;19.39;52.13
63395;BME280;49531;-34.520;150.798;2022-12-18T06:44:56;101249.47;;;19.40;52.08
63395;BME280;49531;-34.520;150.798;2022-12-18T06:47:23;101250.28;;;19.40;52.12
63395;BME280;49531;-34.520;150.798;2022-12-18T06:49:50;101251.13;;;19.41;51.96
63395;BME280;49531;-34.520;150.798;2022-12-18T06:52:17;101246.50;;;19.41;52.14
63395;BME280;49531;-34.520;150.798;2022-12-18T06:54:45;101254.66;;;19.41;52.17
63395;BME280;49531;-34.520;150.798;2022-12-18T06:57:13;101248.97;;;19.43;51.89
63395;BME280;49531;-34.520;150.798;2022-12-18T06:59:40;101265.25;;;19.43;51.94
63395;BME280;49531;-34.520;150.798;2022-12-18T07:02:11;101265.00;;;19.44;51.75
63395;BME280;49531;-34.520;150.798;2022-12-18T07:04:38;101267.72;;;19.44;51.97
63395;BME280;49531;-34.520;150.798;2022-12-18T07:07:06;101266.88;;;19.44;51.87
63395;BME280;49531;-34.520;150.798;2022-12-18T07:09:33;101248.75;;;19.44;51.82
63395;BME280;49531;-34.520;150.798;2022-12-18T07:12:00;101269.34;;;19.45;51.87
63395;BME280;49531;-34.520;150.798;2022-12-18T07:14:27;101274.78;;;19.45;51.78
63395;BME280;49531;-34.520;150.798;2022-12-18T07:16:54;101268.53;;;19.45;51.85
63395;BME280;49531;-34.520;150.798;2022-12-18T07:19:22;101274.53;;;19.47;51.88
63395;BME280;49531;-34.520;150.798;2022-12-18T07:21:50;101278.31;;;19.46;51.91
63395;BME280;49531;-34.520;150.798;2022-12-18T07:24:18;101279.38;;;19.45;51.76
63395;BME280;49531;-34.520;150.798;2022-12-18T07:26:46;101288.09;;;19.47;51.94
63395;BME280;49531;-34.520;150.798;2022-12-18T07:29:14;101275.59;;;19.46;51.94
63395;BME280;49531;-34.520;150.798;2022-12-18T07:31:41;101288.09;;;19.47;51.94
63395;BME280;49531;-34.520;150.798;2022-12-18T07:34:12;101288.91;;;19.47;51.84
63395;BME280;49531;-34.520;150.798;2022-12-18T07:36:39;101291.63;;;19.47;51.88
63395;BME280;49531;-34.520;150.798;2022-12-18T07:39:07;101283.50;;;19.47;51.55
63395;BME280;49531;-34.520;150.798;2022-12-18T07:41:34;101290.78;;;19.47;51.65
63395;BME280;49531;-34.520;150.798;2022-12-18T07:44:01;101285.38;;;19.47;51.70
63395;BME280;49531;-34.520;150.798;2022-12-18T07:46:28;101301.63;;;19.47;51.65
63395;BME280;49531;-34.520;150.798;2022-12-18T07:48:55;101301.63;;;19.47;51.82
63395;BME280;49531;-34.520;150.798;2022-12-18T07:51:22;101299.75;;;19.47;51.81
63395;BME280;49531;-34.520;150.798;2022-12-18T07:53:50;101310.81;;;19.46;52.00
63395;BME280;49531;-34.520;150.798;2022-12-18T07:56:17;101301.88;;;19.45;52.00
63395;BME280;49531;-34.520;150.798;2022-12-18T07:58:45;101307.53;;;19.44;52.02
63395;BME280;49531;-34.520;150.798;2022-12-18T08:01:13;101309.16;;;19.45;52.15
63395;BME280;49531;-34.520;150.798;2022-12-18T08:03:41;101325.19;;;19.46;52.21
63395;BME280;49531;-34.520;150.798;2022-12-18T08:06:09;101325.44;;;19.45;52.50
63395;BME280;49531;-34.520;150.798;2022-12-18T08:08:36;101317.31;;;19.45;52.27
63395;BME280;49531;-34.520;150.798;2022-12-18T08:11:03;101322.72;;;19.45;52.43
63395;BME280;49531;-34.520;150.798;2022-12-18T08:13:31;101325.44;;;19.45;52.74
63395;BME280;49531;-34.520;150.798;2022-12-18T08:16:01;101328.13;;;19.45;52.54
63395;BME280;49531;-34.520;150.798;2022-12-18T08:18:28;101333.56;;;19.45;52.51
63395;BME280;49531;-34.520;150.798;2022-12-18T08:20:56;101332.72;;;19.44;52.62
63395;BME280;49531;-34.520;150.798;2022-12-18T08:23:23;101330.84;;;19.45;52.64
63395;BME280;49531;-34.520;150.798;2022-12-18T08:25:50;101331.09;;;19.43;52.57
63395;BME280;49531;-34.520;150.798;2022-12-18T08:28:18;101335.69;;;19.43;52.59
63395;BME280;49531;-34.520;150.798;2022-12-18T08:30:45;101335.91;;;19.41;52.53
63395;BME280;49531;-34.520;150.798;2022-12-18T08:33:12;101340.28;;;19.42;52.63
63395;BME280;49531;-34.520;150.798;2022-12-18T08:35:39;101338.38;;;19.43;52.61
63395;BME280;49531;-34.520;150.798;2022-12-18T08:38:06;101349.47;;;19.41;52.63
63395;BME280;49531;-34.520;150.798;2022-12-18T08:40:33;101345.94;;;19.41;52.68
63395;BME280;49531;-34.520;150.798;2022-12-18T08:43:00;101336.97;;;19.40;52.55
63395;BME280;49531;-34.520;150.798;2022-12-18T08:45:39;101346.97;;;19.40;52.47
63395;BME280;49531;-34.520;150.798;2022-12-18T08:48:06;101350.75;;;19.39;52.60
63395;BME280;49531;-34.520;150.798;2022-12-18T08:50:33;101355.34;;;19.38;52.48
63395;BME280;49531;-34.520;150.798;2022-12-18T08:53:01;101355.34;;;19.38;52.45
63395;BME280;49531;-34.520;150.798;2022-12-18T08:55:28;101359.94;;;19.38;52.35
63395;BME280;49531;-34.520;150.798;2022-12-18T08:57:55;101359.94;;;19.38;52.48
63395;BME280;49531;-34.520;150.798;2022-12-18T09:00:23;101356.66;;;19.36;52.49
63395;BME280;49531;-34.520;150.798;2022-12-18T09:02:50;101361.25;;;19.35;52.47
63395;BME280;49531;-34.520;150.798;2022-12-18T09:05:17;101369.59;;;19.33;52.34
63395;BME280;49531;-34.520;150.798;2022-12-18T09:07:44;101371.25;;;19.35;52.33
63395;BME280;49531;-34.520;150.798;2022-12-18T09:10:11;101373.38;;;19.32;52.33
63395;BME280;49531;-34.520;150.798;2022-12-18T09:12:39;101369.59;;;19.33;52.26
63395;BME280;49531;-34.520;150.798;2022-12-18T09:15:06;101372.53;;;19.32;52.18
63395;BME280;49531;-34.520;150.798;2022-12-18T09:17:33;101364.66;;;19.30;52.28
63395;BME280;49531;-34.520;150.798;2022-12-18T09:20:00;101370.91;;;19.31;52.14
63395;BME280;49531;-34.520;150.798;2022-12-18T09:22:27;101378.19;;;19.30;52.12
63395;BME280;49531;-34.520;150.798;2022-12-18T09:24:54;101388.22;;;19.30;52.17
63395;BME280;49531;-34.520;150.798;2022-12-18T09:27:21;101389.25;;;19.29;51.97
63395;BME280;49531;-34.520;150.798;2022-12-18T09:29:49;101401.97;;;19.28;51.98
63395;BME280;49531;-34.520;150.798;2022-12-18T09:32:16;101406.34;;;19.29;52.31
63395;BME280;49531;-34.520;150.798;2022-12-18T09:34:43;101399.50;;;19.27;52.78
63395;BME280;49531;-34.520;150.798;2022-12-18T09:37:10;101395.97;;;19.26;52.77
63395;BME280;49531;-34.520;150.798;2022-12-18T09:39:38;101397.63;;;19.27;53.08
63395;BME280;49531;-34.520;150.798;2022-12-18T09:42:05;101398.69;;;19.26;53.26
63395;BME280;49531;-34.520;150.798;2022-12-18T09:44:38;101398.91;;;19.25;53.36
63395;BME280;49531;-34.520;150.798;2022-12-18T09:47:11;101395.97;;;19.26;53.29
63395;BME280;49531;-34.520;150.798;2022-12-18T09:49:45;101397.63;;;19.27;53.38
63395;BME280;49531;-34.520;150.798;2022-12-18T09:52:17;101404.34;;;19.25;53.54
63395;BME280;49531;-34.520;150.798;2022-12-18T09:54:53;101401.88;;;19.23;53.65
63395;BME280;49531;-34.520;150.798;2022-12-18T09:57:22;101398.34;;;19.23;53.68
63395;BME280;49531;-34.520;150.798;2022-12-18T09:59:55;101401.03;;;19.23;53.62
63395;BME280;49531;-34.520;150.798;2022-12-18T10:02:26;101401.88;;;19.23;53.59
63395;BME280;49531;-34.520;150.798;2022-12-18T10:05:05;101398.56;;;19.21;53.85
63395;BME280;49531;-34.520;150.798;2022-12-18T10:07:46;101402.31;;;19.20;53.83
63395;BME280;49531;-34.520;150.798;2022-12-18T10:10:30;101401.28;;;19.21;53.67
63395;BME280;49531;-34.520;150.798;2022-12-18T10:13:19;101399.63;;;19.20;53.83
63395;BME280;49531;-34.520;150.798;2022-12-18T10:16:02;101404.47;;;19.18;53.78
63395;BME280;49531;-34.520;150.798;2022-12-18T10:21:31;101402.25;;;19.15;53.95
63395;BME280;49531;-34.520;150.798;2022-12-18T10:27:15;101398.94;;;19.13;53.99
63395;BME280;49531;-34.520;150.798;2022-12-18T10:29:45;101403.28;;;19.14;54.00
63395;BME280;49531;-34.520;150.798;2022-12-18T10:32:17;101409.19;;;19.11;54.00
63395;BME280;49531;-34.520;150.798;2022-12-18T10:34:47;101409.19;;;19.11;54.07
63395;BME280;49531;-34.520;150.798;2022-12-18T10:37:18;101415.41;;;19.12;54.01
63395;BME280;49531;-34.520;150.798;2022-12-18T10:42:25;101407.53;;;19.10;54.06
63395;BME280;49531;-34.520;150.798;2022-12-18T10:45:05;101403.16;;;19.09;54.10
63395;BME280;49531;-34.520;150.798;2022-12-18T10:47:34;101399.63;;;19.09;54.08
63395;BME280;49531;-34.520;150.798;2022-12-18T10:50:01;101400.94;;;19.06;54.02
63395;BME280;49531;-34.520;150.798;2022-12-18T10:52:29;101402.56;;;19.07;54.13
63395;BME280;49531;-34.520;150.798;2022-12-18T10:54:59;101408.47;;;19.04;54.05
63395;BME280;49531;-34.520;150.798;2022-12-18T10:57:35;101410.09;;;19.05;54.13
63395;BME280;49531;-34.520;150.798;2022-12-18T11:00:20;101420.13;;;19.05;54.12
63395;BME280;49531;-34.520;150.798;2022-12-18T11:02:49;101405.75;;;19.04;54.18
63395;BME280;49531;-34.520;150.798;2022-12-18T11:05:29;101410.56;;;19.02;54.40
63395;BME280;49531;-34.520;150.798;2022-12-18T11:07:58;101405.16;;;19.02;54.05
63395;BME280;49531;-34.520;150.798;2022-12-18T11:10:32;101409.75;;;19.02;54.85
63395;BME280;49531;-34.520;150.798;2022-12-18T11:13:16;101410.81;;;19.01;54.49
63395;BME280;49531;-34.520;150.798;2022-12-18T11:15:44;101407.28;;;19.00;54.50
63395;BME280;49531;-34.520;150.798;2022-12-18T11:18:25;101403.50;;;19.01;54.64
63395;BME280;49531;-34.520;150.798;2022-12-18T11:20:56;101389.16;;;19.01;54.43
63395;BME280;49531;-34.520;150.798;2022-12-18T11:23:25;101395.84;;;18.98;54.68
63395;BME280;49531;-34.520;150.798;2022-12-18T11:25:59;101396.44;;;19.00;54.51
63395;BME280;49531;-34.520;150.798;2022-12-18T11:31:27;101402.91;;;18.99;55.34
63395;BME280;49531;-34.520;150.798;2022-12-18T11:34:02;101389.84;;;18.96;55.41
63395;BME280;49531;-34.520;150.798;2022-12-18T11:36:38;101402.78;;;18.94;55.54
63395;BME280;49531;-34.520;150.798;2022-12-18T11:39:18;101400.06;;;18.94;55.65
63395;BME280;49531;-34.520;150.798;2022-12-18T11:41:57;101404.66;;;18.93;55.57
63395;BME280;49531;-34.520;150.798;2022-12-18T11:44:49;101404.66;;;18.93;55.82
63395;BME280;49531;-34.520;150.798;2022-12-18T11:50:17;101411.38;;;18.91;55.62
63395;BME280;49531;-34.520;150.798;2022-12-18T11:52:45;101412.44;;;18.90;55.82
63395;BME280;49531;-34.520;150.798;2022-12-18T11:55:15;101399.94;;;18.89;55.84
63395;BME280;49531;-34.520;150.798;2022-12-18T12:00:47;101401.84;;;18.88;56.02
63395;BME280;49531;-34.520;150.798;2022-12-18T12:03:24;101392.53;;;18.84;56.19
63395;BME280;49531;-34.520;150.798;2022-12-18T12:06:07;101402.53;;;18.84;56.31
63395;BME280;49531;-34.520;150.798;2022-12-18T12:08:55;101402.75;;;18.82;56.23
63395;BME280;49531;-34.520;150.798;2022-12-18T12:11:54;101404.63;;;18.82;56.70
63395;BME280;49531;-34.520;150.798;2022-12-18T12:14:35;101399.22;;;18.82;56.16
63395;BME280;49531;-34.520;150.798;2022-12-18T12:17:22;101394.88;;;18.81;56.12
63395;BME280;49531;-34.520;150.798;2022-12-18T12:20:06;101394.03;;;18.80;56.10
63395;BME280;49531;-34.520;150.798;2022-12-18T12:22:42;101393.22;;;18.80;55.73
63395;BME280;49531;-34.520;150.798;2022-12-18T12:25:34;101389.94;;;18.78;56.59
63395;BME280;49531;-34.520;150.798;2022-12-18T12:28:22;101383.72;;;18.77;56.61
63395;BME280;49531;-34.520;150.798;2022-12-18T12:36:53;101391.47;;;18.74;56.83
63395;BME280;49531;-34.520;150.798;2022-12-18T12:39:28;101391.47;;;18.74;56.63
63395;BME280;49531;-34.520;150.798;2022-12-18T12:41:57;101389.81;;;18.73;56.52
63395;BME280;49531;-34.520;150.798;2022-12-18T12:44:47;101381.69;;;18.73;56.53
63395;BME280;49531;-34.520;150.798;2022-12-18T12:47:27;101396.28;;;18.72;56.54
63395;BME280;49531;-34.520;150.798;2022-12-18T12:49:57;101396.28;;;18.72;56.60
63395;BME280;49531;-34.520;150.798;2022-12-18T12:52:38;101383.22;;;18.69;56.36
63395;BME280;49531;-34.520;150.798;2022-12-18T12:55:16;101394.03;;;18.69;56.39
63395;BME280;49531;-34.520;150.798;2022-12-18T13:00:43;101386.16;;;18.67;56.21
63395;BME280;49531;-34.520;150.798;2022-12-18T13:03:37;101390.75;;;18.67;56.02
63395;BME280;49531;-34.520;150.798;2022-12-18T13:06:28;101370.16;;;18.65;56.36
63395;BME280;49531;-34.520;150.798;2022-12-18T13:08:59;101376.63;;;18.64;56.19